Ohio University Information

FAA: UNI - ICAO: KUNI

Ohio University (Airport) Location

State Ohio
County Athens
City Athens/Albany
Ohio University (Airport) is 10 miles southwest of Athens/Albany, OH.
Latitude 39-12-42.8142N
Longitude 082-13-45.3195W
Elevation 765ft

Ohio University METARs

METAR KUNI 251635Z AUTO 35003KT 10SM CLR 01/M08 A3016 RMK AO2 T00101083
Altimeter 30.16"
Temperature 1.0°C (33.8°F)
Wind 350° at 3KT
Clouds Skies are clear.
Visibility 10.0mi
Time observed: 2022-01-25T16:35:00Z

Ohio University (Airport) Details

Status Operational
Activation N/A
Ownership Public
Usage Public
Chart CINCINNATI
ATC on-site No
Beacon schedule sunset-sunrise
Beacon color clear green

Ohio University (Airport) Contacts

Owner OHIO UNIVERSITY
Owner address 747 COLUMBIA ROAD, ALBANY, OH 45710
Owner phone 740-597-2600
Manager SOUTHERN OHIO COAL CO
Manager address P.O. BOX 490, ATHENS, OHIO 45701-0490
Manager phone 614-286-5051

Ohio University Radio Frequencies

Ohio University (Airport) Radio Frequencies

UNICOM 123.075
Common traffic advisory frequency (CTAF) 123.075